Time;durP1;ratioP1;P1;durP2;ratioP2;P2;SDS_P1;SDS_P2;PMS_P1;PMS_P2;Temp;Humidity;BMP_temperature;BMP_pressure;BME280_temperature;BME280_humidity;BME280_pressure;Samples;Min_cycle;Max_cycle;Signal;HPM_P1;HPM_P2
2022/01/07 00:02:07;;;;;;;8.63;4.17;;;;;;;;;;5016489;28;20174;-76
2022/01/07 00:04:35;;;;;;;9.90;3.83;;;;;;;;;;5015908;28;20181;-76
2022/01/07 00:07:02;;;;;;;10.80;3.97;;;;;;;;;;5016339;28;20213;-76
2022/01/07 00:09:28;;;;;;;10.17;3.53;;;;;;;;;;4999872;28;20192;-76
2022/01/07 00:11:55;;;;;;;7.50;3.87;;;;;;;;;;5000223;28;20176;-76
2022/01/07 00:14:21;;;;;;;9.17;3.73;;;;;;;;;;4999695;28;20189;-76
2022/01/07 00:16:47;;;;;;;10.67;4.10;;;;;;;;;;5015825;28;20208;-76
2022/01/07 00:19:15;;;;;;;10.83;3.77;;;;;;;;;;5015923;28;20242;-76
2022/01/07 00:21:41;;;;;;;12.17;3.90;;;;;;;;;;5015826;28;20664;-76
2022/01/07 00:24:08;;;;;;;12.60;3.90;;;;;;;;;;4999463;28;20219;-76
2022/01/07 00:26:34;;;;;;;7.53;3.80;;;;;;;;;;4999232;28;20630;-76
2022/01/07 00:29:00;;;;;;;8.70;3.57;;;;;;;;;;4999740;28;20182;-76
2022/01/07 00:31:26;;;;;;;11.00;3.70;;;;;;;;;;4999451;28;20185;-76
2022/01/07 00:33:52;;;;;;;8.23;3.60;;;;;;;;;;4999472;28;20240;-76
2022/01/07 00:36:18;;;;;;;7.07;3.10;;;;;;;;;;4999642;28;20181;-76
2022/01/07 00:38:44;;;;;;;9.17;3.40;;;;;;;;;;4999319;28;20677;-76
2022/01/07 00:41:10;;;;;;;8.97;3.20;;;;;;;;;;5015830;28;20182;-76
2022/01/07 00:43:36;;;;;;;10.10;3.00;;;;;;;;;;5014428;28;20181;-76
2022/01/07 00:46:02;;;;;;;10.83;3.40;;;;;;;;;;4999148;28;20240;-76
2022/01/07 00:48:28;;;;;;;8.90;3.17;;;;;;;;;;4998957;28;20247;-76
2022/01/07 00:50:54;;;;;;;8.73;3.10;;;;;;;;;;4999340;28;20640;-76
2022/01/07 00:53:20;;;;;;;6.97;3.10;;;;;;;;;;4998931;28;20185;-76
2022/01/07 00:55:46;;;;;;;8.33;3.00;;;;;;;;;;5015716;28;20216;-76
2022/01/07 00:58:12;;;;;;;7.67;2.80;;;;;;;;;;5015466;28;20201;-76
2022/01/07 01:00:39;;;;;;;7.53;2.93;;;;;;;;;;4998979;28;20209;-76
2022/01/07 01:03:05;;;;;;;9.87;3.93;;;;;;;;;;5015012;28;20185;-76
2022/01/07 01:05:32;;;;;;;8.80;3.10;;;;;;;;;;4999047;28;20559;-76
2022/01/07 01:07:58;;;;;;;9.10;2.87;;;;;;;;;;5015219;28;20202;-76
2022/01/07 01:10:25;;;;;;;5.27;2.90;;;;;;;;;;5015421;28;20178;-76
2022/01/07 01:12:52;;;;;;;6.57;3.00;;;;;;;;;;5014937;28;20211;-76
2022/01/07 01:15:22;;;;;;;9.50;3.20;;;;;;;;;;5014846;28;20640;-76
2022/01/07 01:17:52;;;;;;;6.00;2.73;;;;;;;;;;5021415;23;20618;-75
2022/01/07 01:20:19;;;;;;;5.57;2.70;;;;;;;;;;5012933;28;20648;-75
2022/01/07 01:22:45;;;;;;;7.23;2.80;;;;;;;;;;5012835;28;20202;-75
2022/01/07 01:25:11;;;;;;;8.53;3.00;;;;;;;;;;4995064;28;20211;-75
2022/01/07 01:27:37;;;;;;;7.97;2.70;;;;;;;;;;5011717;28;20205;-74
2022/01/07 01:30:05;;;;;;;5.53;2.80;;;;;;;;;;4995724;28;20177;-75
2022/01/07 01:32:31;;;;;;;6.40;3.00;;;;;;;;;;5011650;28;20181;-75
2022/01/07 01:34:57;;;;;;;5.07;3.00;;;;;;;;;;5011418;28;20189;-74
2022/01/07 01:37:23;;;;;;;7.60;3.30;;;;;;;;;;5011521;28;20198;-74
2022/01/07 01:39:57;;;;;;;5.60;2.70;;;;;;;;;;4994900;28;20183;-74
2022/01/07 01:42:23;;;;;;;5.10;2.90;;;;;;;;;;5011550;28;20200;-76
2022/01/07 01:44:49;;;;;;;6.13;2.70;;;;;;;;;;5011477;28;20720;-77
2022/01/07 01:47:15;;;;;;;8.73;3.27;;;;;;;;;;5011413;28;20214;-76
2022/01/07 01:49:41;;;;;;;9.67;3.50;;;;;;;;;;5012679;28;20178;-76
2022/01/07 01:52:07;;;;;;;7.30;2.73;;;;;;;;;;5011502;28;20175;-76
2022/01/07 01:54:34;;;;;;;5.63;2.90;;;;;;;;;;5013427;28;20178;-76
2022/01/07 01:57:00;;;;;;;4.67;2.83;;;;;;;;;;5015519;28;20179;-76
2022/01/07 01:59:30;;;;;;;6.83;2.83;;;;;;;;;;5015519;28;20544;-77
2022/01/07 02:01:57;;;;;;;7.87;3.43;;;;;;;;;;5015366;28;20178;-77
2022/01/07 02:04:23;;;;;;;5.93;3.33;;;;;;;;;;5016239;28;20174;-76
2022/01/07 02:06:49;;;;;;;9.47;2.90;;;;;;;;;;5014918;28;20611;-76
2022/01/07 02:09:18;;;;;;;9.33;3.50;;;;;;;;;;5015058;28;20244;-76
2022/01/07 02:11:44;;;;;;;7.57;3.07;;;;;;;;;;4999094;28;20223;-76
2022/01/07 02:14:11;;;;;;;7.00;3.13;;;;;;;;;;4998882;28;20185;-76
2022/01/07 02:16:37;;;;;;;9.57;3.47;;;;;;;;;;4998645;28;20190;-76
2022/01/07 02:19:03;;;;;;;7.30;3.50;;;;;;;;;;5014884;28;20229;-77
2022/01/07 02:21:29;;;;;;;9.67;3.37;;;;;;;;;;5015168;28;20185;-76
2022/01/07 02:23:55;;;;;;;10.23;3.47;;;;;;;;;;4998621;28;20182;-77
2022/01/07 02:26:21;;;;;;;5.73;3.30;;;;;;;;;;4998368;28;20235;-77
2022/01/07 02:28:49;;;;;;;4.83;2.97;;;;;;;;;;4998491;28;20202;-77
2022/01/07 02:31:15;;;;;;;9.87;3.30;;;;;;;;;;4998989;28;20626;-76
2022/01/07 02:33:41;;;;;;;10.33;3.80;;;;;;;;;;5014662;28;20178;-77
2022/01/07 02:36:08;;;;;;;9.37;3.80;;;;;;;;;;4998614;28;20179;-77
2022/01/07 02:38:34;;;;;;;10.27;3.63;;;;;;;;;;5014366;28;20195;-76
2022/01/07 02:41:01;;;;;;;7.90;3.57;;;;;;;;;;4998202;28;20194;-76
2022/01/07 02:43:27;;;;;;;10.03;3.87;;;;;;;;;;5014529;28;20521;-77
2022/01/07 02:45:53;;;;;;;8.40;4.00;;;;;;;;;;4998287;28;20213;-77
2022/01/07 02:48:20;;;;;;;6.53;3.80;;;;;;;;;;4997958;28;20204;-77
2022/01/07 02:50:46;;;;;;;12.77;3.90;;;;;;;;;;4998435;28;20190;-77
2022/01/07 02:53:12;;;;;;;9.77;4.10;;;;;;;;;;5014315;28;20183;-76
2022/01/07 02:55:39;;;;;;;11.67;4.30;;;;;;;;;;4997951;28;20186;-76
2022/01/07 02:58:05;;;;;;;7.20;4.30;;;;;;;;;;5015328;28;20229;-76
2022/01/07 03:00:32;;;;;;;9.80;4.17;;;;;;;;;;5014414;28;20182;-76
2022/01/07 03:02:59;;;;;;;8.47;4.47;;;;;;;;;;5014161;28;20194;-77
2022/01/07 03:05:25;;;;;;;14.93;5.10;;;;;;;;;;5013017;28;20260;-76
2022/01/07 03:07:51;;;;;;;11.90;4.30;;;;;;;;;;5013989;28;20202;-77
2022/01/07 03:10:18;;;;;;;10.57;4.73;;;;;;;;;;4997636;28;20707;-76
2022/01/07 03:12:44;;;;;;;10.93;4.97;;;;;;;;;;5014328;28;20172;-76
2022/01/07 03:15:12;;;;;;;11.07;5.23;;;;;;;;;;4997522;28;20193;-76
2022/01/07 03:17:39;;;;;;;9.37;4.93;;;;;;;;;;5013805;28;20252;-76
2022/01/07 03:20:07;;;;;;;7.13;3.77;;;;;;;;;;5014064;28;20201;-76
2022/01/07 03:22:33;;;;;;;12.60;5.27;;;;;;;;;;5013951;28;20597;-76
2022/01/07 03:24:59;;;;;;;11.20;4.80;;;;;;;;;;4997228;28;20183;-76
2022/01/07 03:27:25;;;;;;;9.90;4.80;;;;;;;;;;4997654;28;20329;-76
2022/01/07 03:29:51;;;;;;;9.60;4.87;;;;;;;;;;5013593;28;20587;-76
2022/01/07 03:32:17;;;;;;;14.33;5.00;;;;;;;;;;5013743;28;20175;-76
2022/01/07 03:34:43;;;;;;;9.13;4.63;;;;;;;;;;5013737;28;20179;-76
2022/01/07 03:37:09;;;;;;;8.43;4.70;;;;;;;;;;4997455;28;20633;-76
2022/01/07 03:39:35;;;;;;;7.33;4.53;;;;;;;;;;5013406;28;20179;-76
2022/01/07 03:42:01;;;;;;;14.73;5.33;;;;;;;;;;4997343;28;20186;-77
2022/01/07 03:44:27;;;;;;;11.70;4.53;;;;;;;;;;4996938;28;20623;-76
2022/01/07 03:46:53;;;;;;;11.20;4.70;;;;;;;;;;4997210;28;20222;-76
2022/01/07 03:49:19;;;;;;;10.53;5.20;;;;;;;;;;5013041;28;20296;-76
2022/01/07 03:51:45;;;;;;;10.63;4.23;;;;;;;;;;5013262;28;20178;-76
2022/01/07 03:54:11;;;;;;;7.37;4.47;;;;;;;;;;4996966;28;20178;-76
2022/01/07 03:56:37;;;;;;;8.93;4.20;;;;;;;;;;4996828;28;20186;-76
2022/01/07 03:59:04;;;;;;;10.77;4.30;;;;;;;;;;5013181;28;20680;-76
2022/01/07 04:01:30;;;;;;;11.63;5.00;;;;;;;;;;4996728;28;20181;-76
2022/01/07 04:03:56;;;;;;;12.03;5.27;;;;;;;;;;5012686;28;20613;-76
2022/01/07 04:06:22;;;;;;;10.43;5.03;;;;;;;;;;4996858;28;20207;-77
2022/01/07 04:08:48;;;;;;;14.40;5.10;;;;;;;;;;5014030;28;20230;-76
2022/01/07 04:11:14;;;;;;;8.70;4.80;;;;;;;;;;4996629;28;20209;-76
2022/01/07 04:13:40;;;;;;;9.30;4.60;;;;;;;;;;4996365;28;20266;-76
2022/01/07 04:16:07;;;;;;;10.13;5.20;;;;;;;;;;5012698;28;20236;-77
2022/01/07 04:18:33;;;;;;;11.23;5.33;;;;;;;;;;5012699;28;20226;-77
2022/01/07 04:20:59;;;;;;;13.80;6.27;;;;;;;;;;5012572;28;20679;-77
2022/01/07 04:23:25;;;;;;;11.73;5.87;;;;;;;;;;5012583;28;20633;-76
2022/01/07 04:25:51;;;;;;;12.00;6.50;;;;;;;;;;4996501;28;20202;-77
2022/01/07 04:28:17;;;;;;;9.57;5.63;;;;;;;;;;4996450;28;20537;-77
2022/01/07 04:30:44;;;;;;;11.00;5.10;;;;;;;;;;4996244;28;20187;-77
2022/01/07 04:33:13;;;;;;;12.10;5.93;;;;;;;;;;5012550;28;20229;-77
2022/01/07 04:35:40;;;;;;;12.10;5.47;;;;;;;;;;5012559;28;20179;-76
2022/01/07 04:38:06;;;;;;;8.90;5.17;;;;;;;;;;4996395;28;20208;-76
2022/01/07 04:40:32;;;;;;;11.00;5.17;;;;;;;;;;5012392;28;20177;-77
2022/01/07 04:42:59;;;;;;;7.53;4.67;;;;;;;;;;5012318;28;20174;-76
2022/01/07 04:45:26;;;;;;;8.00;5.13;;;;;;;;;;5012086;28;20206;-76
2022/01/07 04:47:52;;;;;;;10.10;4.70;;;;;;;;;;5012210;28;20193;-76
2022/01/07 04:50:20;;;;;;;6.17;4.03;;;;;;;;;;5012176;28;20313;-76
2022/01/07 04:52:46;;;;;;;9.17;4.60;;;;;;;;;;4996109;28;20186;-76
2022/01/07 04:55:17;;;;;;;7.13;4.20;;;;;;;;;;4995655;28;20182;-77
2022/01/07 04:57:43;;;;;;;7.63;4.50;;;;;;;;;;4995741;28;20210;-76
2022/01/07 05:00:10;;;;;;;9.37;4.23;;;;;;;;;;5013430;28;20205;-76
2022/01/07 05:02:36;;;;;;;7.13;4.33;;;;;;;;;;5013288;28;20209;-76
2022/01/07 05:05:02;;;;;;;10.57;4.67;;;;;;;;;;5011835;28;20185;-76
2022/01/07 05:07:28;;;;;;;9.17;4.83;;;;;;;;;;4995876;28;20198;-77
2022/01/07 05:09:54;;;;;;;8.03;4.40;;;;;;;;;;5012152;28;20178;-76
2022/01/07 05:12:20;;;;;;;8.07;4.87;;;;;;;;;;4995554;28;20178;-76
2022/01/07 05:14:46;;;;;;;6.80;4.00;;;;;;;;;;5011712;28;20227;-76
2022/01/07 05:17:12;;;;;;;9.17;4.50;;;;;;;;;;5012747;28;20554;-76
2022/01/07 05:19:38;;;;;;;8.20;4.00;;;;;;;;;;5012190;28;20267;-76
2022/01/07 05:22:05;;;;;;;9.13;4.40;;;;;;;;;;4995681;28;20182;-76
2022/01/07 05:24:31;;;;;;;8.50;3.77;;;;;;;;;;5011475;28;20184;-77
2022/01/07 05:26:57;;;;;;;9.00;4.60;;;;;;;;;;5011821;28;20213;-76
2022/01/07 05:29:23;;;;;;;8.07;4.40;;;;;;;;;;5011093;28;20206;-77
2022/01/07 05:31:49;;;;;;;6.23;3.80;;;;;;;;;;5011450;28;20668;-76
2022/01/07 05:34:15;;;;;;;12.03;4.27;;;;;;;;;;5011665;28;20178;-76
2022/01/07 05:36:41;;;;;;;7.43;4.20;;;;;;;;;;4995571;28;20693;-76
2022/01/07 05:39:07;;;;;;;11.13;4.10;;;;;;;;;;4995216;28;20205;-76
2022/01/07 05:41:33;;;;;;;8.33;4.30;;;;;;;;;;5011682;28;20198;-76
2022/01/07 05:43:59;;;;;;;8.40;4.60;;;;;;;;;;4995481;28;20186;-76
2022/01/07 05:46:25;;;;;;;6.83;4.00;;;;;;;;;;5011663;28;20209;-77
2022/01/07 05:48:51;;;;;;;9.53;4.47;;;;;;;;;;4995408;28;20297;-76
2022/01/07 05:51:17;;;;;;;6.63;3.90;;;;;;;;;;5011643;28;20174;-77
2022/01/07 05:53:43;;;;;;;7.50;3.67;;;;;;;;;;5011428;28;20185;-76
2022/01/07 05:56:09;;;;;;;6.57;3.83;;;;;;;;;;5011526;28;20194;-76
2022/01/07 05:58:35;;;;;;;9.23;3.80;;;;;;;;;;5011303;28;20208;-76
2022/01/07 06:01:02;;;;;;;7.40;3.50;;;;;;;;;;5011617;28;20175;-76
2022/01/07 06:03:28;;;;;;;8.13;4.23;;;;;;;;;;5011587;28;20182;-77
2022/01/07 06:05:54;;;;;;;8.93;3.40;;;;;;;;;;5011309;28;20221;-76
2022/01/07 06:08:20;;;;;;;8.50;3.70;;;;;;;;;;5011537;28;20216;-79
2022/01/07 06:10:46;;;;;;;7.50;3.80;;;;;;;;;;4998668;28;20190;-78
2022/01/07 06:13:12;;;;;;;9.53;4.30;;;;;;;;;;4999098;28;20190;-79
2022/01/07 06:15:37;;;;;;;7.23;4.07;;;;;;;;;;4999136;28;20193;-79
2022/01/07 06:18:04;;;;;;;6.90;4.57;;;;;;;;;;4998934;28;20617;-79
2022/01/07 06:20:30;;;;;;;9.00;4.43;;;;;;;;;;5012610;28;20224;-78
2022/01/07 06:22:56;;;;;;;7.73;3.87;;;;;;;;;;5012434;28;20183;-80
2022/01/07 06:25:22;;;;;;;8.77;4.10;;;;;;;;;;4995173;28;20268;-80
2022/01/07 06:27:48;;;;;;;8.37;3.77;;;;;;;;;;5011547;28;20708;-80
2022/01/07 06:30:14;;;;;;;8.87;4.27;;;;;;;;;;5011447;28;20201;-79
2022/01/07 06:32:40;;;;;;;6.73;4.07;;;;;;;;;;5011827;28;20641;-79
2022/01/07 06:35:07;;;;;;;7.77;3.67;;;;;;;;;;4995122;28;20182;-79
2022/01/07 06:37:33;;;;;;;8.13;3.90;;;;;;;;;;5012678;28;20203;-80
2022/01/07 06:39:59;;;;;;;9.40;3.77;;;;;;;;;;4995492;28;20662;-80
2022/01/07 06:42:25;;;;;;;6.03;4.07;;;;;;;;;;4998665;28;20191;-79
2022/01/07 06:44:51;;;;;;;11.40;4.83;;;;;;;;;;5016708;28;20181;-77
2022/01/07 06:47:17;;;;;;;7.47;3.80;;;;;;;;;;4999045;28;20177;-79
2022/01/07 06:49:43;;;;;;;6.57;4.10;;;;;;;;;;4998840;28;20233;-79
2022/01/07 06:52:09;;;;;;;6.30;4.60;;;;;;;;;;4998427;28;20236;-79
2022/01/07 06:54:35;;;;;;;10.93;5.77;;;;;;;;;;4998502;28;20550;-80
2022/01/07 06:57:01;;;;;;;12.77;7.00;;;;;;;;;;5014479;28;20190;-80
2022/01/07 06:59:27;;;;;;;13.17;6.53;;;;;;;;;;5014922;28;20272;-79
2022/01/07 07:01:53;;;;;;;11.57;5.57;;;;;;;;;;5015537;28;20189;-79
2022/01/07 07:04:19;;;;;;;23.37;10.43;;;;;;;;;;4997989;28;20558;-79
2022/01/07 07:06:45;;;;;;;23.00;10.13;;;;;;;;;;4998255;28;20252;-81
2022/01/07 07:09:12;;;;;;;10.60;6.70;;;;;;;;;;5014205;28;20208;-78
2022/01/07 07:11:39;;;;;;;7.60;4.73;;;;;;;;;;5014845;28;20175;-79
2022/01/07 07:14:05;;;;;;;9.57;5.30;;;;;;;;;;4998280;28;20182;-78
2022/01/07 07:16:31;;;;;;;8.07;4.90;;;;;;;;;;4997739;28;20186;-79
2022/01/07 07:18:57;;;;;;;7.83;4.70;;;;;;;;;;5060949;23;20224;-77
2022/01/07 07:21:23;;;;;;;6.07;4.43;;;;;;;;;;5037113;28;20203;-77
2022/01/07 07:23:49;;;;;;;11.60;4.93;;;;;;;;;;5036790;28;20184;-77
2022/01/07 07:26:15;;;;;;;5.97;4.20;;;;;;;;;;5040602;28;20208;-78
2022/01/07 07:28:41;;;;;;;5.80;3.73;;;;;;;;;;5028176;28;20217;-78
2022/01/07 07:31:10;;;;;;;7.37;4.30;;;;;;;;;;5019029;28;20644;-78
2022/01/07 07:36:27;;;;;;;8.87;4.37;;;;;;;;;;5036103;28;20246;-78
2022/01/07 07:39:11;;;;;;;11.87;4.10;;;;;;;;;;5035942;28;20204;-78
2022/01/07 07:41:38;;;;;;;7.43;4.00;;;;;;;;;;5036769;28;20208;-78
2022/01/07 07:44:05;;;;;;;6.00;4.00;;;;;;;;;;5035783;28;20185;-80
2022/01/07 07:46:32;;;;;;;6.30;4.10;;;;;;;;;;5035449;28;20212;-79
2022/01/07 07:49:00;;;;;;;5.93;4.20;;;;;;;;;;5035809;28;20690;-80
2022/01/07 07:51:26;;;;;;;9.60;6.20;;;;;;;;;;5035314;28;20205;-80
2022/01/07 07:53:52;;;;;;;7.57;4.40;;;;;;;;;;5037491;28;20174;-81
2022/01/07 07:56:19;;;;;;;7.87;4.27;;;;;;;;;;5037650;28;20184;-79
2022/01/07 07:58:45;;;;;;;7.67;4.20;;;;;;;;;;5035124;28;20250;-80
2022/01/07 08:01:12;;;;;;;11.23;4.90;;;;;;;;;;5034531;28;20188;-80
2022/01/07 08:03:38;;;;;;;8.03;4.33;;;;;;;;;;5034786;28;20196;-81
2022/01/07 08:06:04;;;;;;;6.20;4.53;;;;;;;;;;5036142;28;20212;-80
2022/01/07 08:08:31;;;;;;;7.33;3.83;;;;;;;;;;5018449;28;20213;-80
2022/01/07 08:11:00;;;;;;;6.10;3.50;;;;;;;;;;5034876;28;20177;-80
2022/01/07 08:16:11;;;;;;;6.27;3.70;;;;;;;;;;5037874;28;20189;-80
2022/01/07 08:18:38;;;;;;;7.43;4.17;;;;;;;;;;5018277;28;20225;-80
2022/01/07 08:21:11;;;;;;;8.57;4.40;;;;;;;;;;5017794;28;20192;-80
2022/01/07 08:23:39;;;;;;;7.40;4.03;;;;;;;;;;5034232;28;20184;-81
2022/01/07 08:26:07;;;;;;;8.30;3.83;;;;;;;;;;5033021;28;20198;-81
2022/01/07 08:28:39;;;;;;;10.73;4.33;;;;;;;;;;5016623;28;20208;-80
2022/01/07 08:36:20;;;;;;;5.80;4.27;;;;;;;;;;5033529;28;20187;-81
2022/01/07 08:38:48;;;;;;;6.40;4.10;;;;;;;;;;5033343;28;20232;-81
2022/01/07 08:41:14;;;;;;;7.43;3.73;;;;;;;;;;5016275;28;20217;-81
2022/01/07 08:43:40;;;;;;;6.33;4.47;;;;;;;;;;5032648;28;20640;-81
2022/01/07 08:46:07;;;;;;;8.23;3.70;;;;;;;;;;5032943;28;20256;-80
2022/01/07 08:48:33;;;;;;;7.60;4.03;;;;;;;;;;5032734;28;20202;-80
2022/01/07 08:50:59;;;;;;;6.13;3.80;;;;;;;;;;5033935;28;20174;-80
2022/01/07 08:53:25;;;;;;;5.87;3.77;;;;;;;;;;5016361;28;20232;-81
2022/01/07 08:55:51;;;;;;;5.30;3.37;;;;;;;;;;5032665;28;20178;-80
2022/01/07 08:58:17;;;;;;;5.63;3.37;;;;;;;;;;5032352;28;20229;-80
2022/01/07 09:00:43;;;;;;;5.87;3.63;;;;;;;;;;5016436;28;20659;-80
2022/01/07 09:03:09;;;;;;;7.13;4.70;;;;;;;;;;5015116;28;20190;-80
2022/01/07 09:05:35;;;;;;;9.07;4.90;;;;;;;;;;5032122;28;20202;-80
2022/01/07 09:08:02;;;;;;;7.77;4.20;;;;;;;;;;5016030;28;20666;-80
2022/01/07 09:10:28;;;;;;;9.43;4.87;;;;;;;;;;5032287;28;20174;-79
2022/01/07 09:12:54;;;;;;;6.50;4.47;;;;;;;;;;5032545;28;20224;-80
2022/01/07 09:15:20;;;;;;;6.47;3.53;;;;;;;;;;5032318;28;20186;-80
2022/01/07 09:17:46;;;;;;;4.00;2.60;;;;;;;;;;5032599;28;20208;-80
2022/01/07 09:20:12;;;;;;;8.73;4.17;;;;;;;;;;5033426;28;20174;-80
2022/01/07 09:22:38;;;;;;;6.60;4.00;;;;;;;;;;5032553;28;20525;-80
2022/01/07 09:25:05;;;;;;;6.83;3.57;;;;;;;;;;5016485;28;20185;-80
2022/01/07 09:27:32;;;;;;;5.57;4.20;;;;;;;;;;5032649;28;20178;-80
2022/01/07 09:29:58;;;;;;;7.17;4.23;;;;;;;;;;5016303;28;20798;-80
2022/01/07 09:32:24;;;;;;;6.90;4.30;;;;;;;;;;5032999;28;20273;-79
2022/01/07 09:34:50;;;;;;;6.30;3.80;;;;;;;;;;5033666;28;20219;-82
2022/01/07 09:37:16;;;;;;;5.67;3.50;;;;;;;;;;5034870;28;20178;-80
2022/01/07 09:39:42;;;;;;;5.23;4.00;;;;;;;;;;5016193;28;20217;-79
2022/01/07 09:42:09;;;;;;;5.80;3.87;;;;;;;;;;5034326;28;20216;-81
2022/01/07 09:44:39;;;;;;;7.10;4.13;;;;;;;;;;5033361;28;20542;-78
2022/01/07 09:47:05;;;;;;;5.67;3.70;;;;;;;;;;5015951;28;20210;-80
2022/01/07 09:49:34;;;;;;;4.80;3.33;;;;;;;;;;5032531;28;20202;-81
2022/01/07 09:52:00;;;;;;;5.80;3.70;;;;;;;;;;5016747;28;20189;-81
2022/01/07 09:54:26;;;;;;;7.27;4.00;;;;;;;;;;5032562;28;20236;-80
2022/01/07 09:56:52;;;;;;;5.40;3.10;;;;;;;;;;5033567;28;20181;-80
2022/01/07 09:59:18;;;;;;;7.03;3.20;;;;;;;;;;5015299;28;20198;-80
2022/01/07 10:01:54;;;;;;;4.93;3.13;;;;;;;;;;5015893;28;20186;-81
2022/01/07 10:04:33;;;;;;;3.47;2.87;;;;;;;;;;5033366;28;20189;-81
2022/01/07 10:07:12;;;;;;;3.50;2.90;;;;;;;;;;5031574;28;20224;-80
2022/01/07 10:09:39;;;;;;;4.43;2.73;;;;;;;;;;5031816;28;20204;-80
2022/01/07 10:12:06;;;;;;;4.97;2.77;;;;;;;;;;5015273;28;20192;-79
2022/01/07 10:14:32;;;;;;;5.13;2.80;;;;;;;;;;5032781;28;20203;-80
2022/01/07 10:16:59;;;;;;;4.63;2.90;;;;;;;;;;5036379;28;20323;-80
2022/01/07 10:19:36;;;;;;;4.67;2.63;;;;;;;;;;5019904;28;20245;-79
2022/01/07 10:22:06;;;;;;;3.23;2.40;;;;;;;;;;5019762;28;20177;-79
2022/01/07 10:24:33;;;;;;;4.37;2.63;;;;;;;;;;5035781;28;20177;-80
2022/01/07 10:27:13;;;;;;;3.67;2.50;;;;;;;;;;5036125;28;20731;-79
2022/01/07 10:29:43;;;;;;;4.77;2.50;;;;;;;;;;5036210;28;20194;-78
2022/01/07 10:32:19;;;;;;;4.23;2.50;;;;;;;;;;5038547;28;20174;-82
2022/01/07 10:35:02;;;;;;;3.10;2.33;;;;;;;;;;5039851;28;20185;-82
2022/01/07 10:37:28;;;;;;;4.90;2.70;;;;;;;;;;5022104;28;20711;-82
2022/01/07 10:39:54;;;;;;;3.60;2.50;;;;;;;;;;5039157;28;20257;-82
2022/01/07 10:42:24;;;;;;;3.77;2.60;;;;;;;;;;5023850;28;20225;-83
2022/01/07 10:45:03;;;;;;;3.87;2.43;;;;;;;;;;5022745;28;20178;-83
2022/01/07 10:47:30;;;;;;;4.40;2.30;;;;;;;;;;5023223;28;20221;-82
2022/01/07 10:50:14;;;;;;;3.40;2.40;;;;;;;;;;5026399;28;20189;-83
2022/01/07 10:52:41;;;;;;;5.03;2.30;;;;;;;;;;5041954;28;20177;-83
2022/01/07 10:55:25;;;;;;;3.67;2.27;;;;;;;;;;5036846;28;20178;-80
2022/01/07 10:57:52;;;;;;;4.13;2.30;;;;;;;;;;5019527;28;20205;-82
2022/01/07 11:00:19;;;;;;;3.43;2.47;;;;;;;;;;5036807;28;20185;-81
2022/01/07 11:02:45;;;;;;;3.07;2.20;;;;;;;;;;5035349;28;20178;-79
2022/01/07 11:05:11;;;;;;;4.60;2.10;;;;;;;;;;5018304;28;20519;-79
2022/01/07 11:07:38;;;;;;;2.63;2.07;;;;;;;;;;5035031;28;20186;-78
2022/01/07 11:10:07;;;;;;;4.57;2.10;;;;;;;;;;5034648;28;20170;-78
2022/01/07 11:12:34;;;;;;;2.83;2.13;;;;;;;;;;5018634;28;20613;-78
2022/01/07 11:15:00;;;;;;;2.87;2.20;;;;;;;;;;5019307;28;20174;-80
2022/01/07 11:17:27;;;;;;;3.30;2.50;;;;;;;;;;5019568;28;20557;-78
2022/01/07 11:19:57;;;;;;;3.17;2.07;;;;;;;;;;5017498;28;20187;-79
2022/01/07 11:22:24;;;;;;;3.40;2.10;;;;;;;;;;5034151;28;20180;-78
2022/01/07 11:25:06;;;;;;;2.30;1.90;;;;;;;;;;5034520;28;20190;-79
2022/01/07 11:27:45;;;;;;;2.50;2.00;;;;;;;;;;5032851;28;20561;-79
2022/01/07 11:30:12;;;;;;;2.77;1.93;;;;;;;;;;5034162;28;20209;-78
2022/01/07 11:32:39;;;;;;;4.33;2.03;;;;;;;;;;5017302;28;20200;-78
2022/01/07 11:35:18;;;;;;;4.33;3.00;;;;;;;;;;5033504;28;20174;-79
2022/01/07 11:37:50;;;;;;;3.27;1.87;;;;;;;;;;5036000;28;20289;-78
2022/01/07 11:40:29;;;;;;;3.00;2.13;;;;;;;;;;5034458;28;20181;-78
2022/01/07 11:42:56;;;;;;;2.80;2.00;;;;;;;;;;5034904;28;20166;-79
2022/01/07 11:45:34;;;;;;;4.77;2.10;;;;;;;;;;5017976;28;20233;-79
2022/01/07 11:48:13;;;;;;;2.47;1.97;;;;;;;;;;5034008;28;20197;-81
2022/01/07 11:50:49;;;;;;;2.57;2.07;;;;;;;;;;5034922;28;20613;-82
2022/01/07 11:53:15;;;;;;;3.27;2.53;;;;;;;;;;5034164;28;20170;-78
2022/01/07 11:55:41;;;;;;;3.00;2.40;;;;;;;;;;5033831;28;20541;-78
2022/01/07 11:58:14;;;;;;;2.20;2.00;;;;;;;;;;5033746;28;20202;-78
2022/01/07 13:13:59;;;;;;;3.83;2.80;;;;;;;;;;6070255;22;20172;-86
2022/01/07 13:16:27;;;;;;;4.33;3.30;;;;;;;;;;5013100;28;20203;-87
2022/01/07 13:18:53;;;;;;;7.57;3.67;;;;;;;;;;4995733;28;20692;-84
2022/01/07 13:21:19;;;;;;;5.63;3.53;;;;;;;;;;5011837;28;20175;-82
2022/01/07 13:23:49;;;;;;;4.73;3.53;;;;;;;;;;4992324;28;20207;-84
2022/01/07 13:26:15;;;;;;;4.97;3.57;;;;;;;;;;4992501;28;20205;-86
2022/01/07 13:28:49;;;;;;;4.73;4.00;;;;;;;;;;4992160;28;20209;-85
2022/01/07 13:31:19;;;;;;;4.40;3.23;;;;;;;;;;4991900;28;20553;-85
2022/01/07 13:33:45;;;;;;;5.53;4.10;;;;;;;;;;4991373;28;20203;-85
2022/01/07 13:36:13;;;;;;;5.83;4.47;;;;;;;;;;4991465;28;20195;-85
2022/01/07 13:38:40;;;;;;;6.27;4.50;;;;;;;;;;4991481;28;20278;-86
2022/01/07 13:41:07;;;;;;;6.50;4.67;;;;;;;;;;4991427;28;20183;-85
2022/01/07 13:43:34;;;;;;;7.87;4.70;;;;;;;;;;4991214;28;20329;-85
2022/01/07 13:46:17;;;;;;;7.07;4.23;;;;;;;;;;4991580;28;20262;-85
2022/01/07 13:49:02;;;;;;;6.37;4.63;;;;;;;;;;4991417;28;20182;-85
2022/01/07 13:51:29;;;;;;;7.53;5.30;;;;;;;;;;4995381;28;20198;-85
2022/01/07 13:54:08;;;;;;;6.03;4.77;;;;;;;;;;4995376;28;20682;-85
2022/01/07 13:56:34;;;;;;;6.23;4.87;;;;;;;;;;4995400;28;20175;-85
2022/01/07 13:59:01;;;;;;;7.57;4.80;;;;;;;;;;4995334;28;20187;-85
2022/01/07 14:01:27;;;;;;;7.23;4.80;;;;;;;;;;4995133;28;20176;-85
2022/01/07 14:03:54;;;;;;;7.50;5.10;;;;;;;;;;4994963;28;20199;-85
2022/01/07 14:06:20;;;;;;;6.57;4.53;;;;;;;;;;4995241;28;20624;-85
2022/01/07 14:08:50;;;;;;;6.43;4.57;;;;;;;;;;4995377;28;20178;-85
2022/01/07 14:11:16;;;;;;;6.30;4.90;;;;;;;;;;4995211;28;20215;-85
2022/01/07 14:13:43;;;;;;;6.47;4.43;;;;;;;;;;4994600;28;20231;-85
2022/01/07 14:16:21;;;;;;;5.50;4.20;;;;;;;;;;4995094;28;20199;-85
2022/01/07 14:18:57;;;;;;;4.80;4.13;;;;;;;;;;4994949;28;20183;-85
2022/01/07 14:21:23;;;;;;;4.90;4.40;;;;;;;;;;4995025;28;20251;-85
2022/01/07 14:23:49;;;;;;;7.13;4.20;;;;;;;;;;4994587;28;20652;-85
2022/01/07 14:26:17;;;;;;;12.07;8.23;;;;;;;;;;4994760;28;20215;-85
2022/01/07 14:28:46;;;;;;;5.30;4.13;;;;;;;;;;4994742;28;20554;-85
2022/01/07 14:31:15;;;;;;;9.70;7.47;;;;;;;;;;4994799;28;20712;-85
2022/01/07 14:33:44;;;;;;;4.63;4.00;;;;;;;;;;4994568;28;20577;-85
2022/01/07 14:36:14;;;;;;;5.70;3.63;;;;;;;;;;4994742;28;20556;-85
2022/01/07 14:38:41;;;;;;;3.93;3.50;;;;;;;;;;4994701;28;20202;-85
2022/01/07 14:41:07;;;;;;;4.50;3.40;;;;;;;;;;4994880;28;20180;-85
2022/01/07 14:43:33;;;;;;;3.60;2.93;;;;;;;;;;4994370;28;20179;-85
2022/01/07 14:45:59;;;;;;;4.17;3.43;;;;;;;;;;4994511;28;20203;-85
2022/01/07 14:48:26;;;;;;;4.10;3.13;;;;;;;;;;4994512;28;20180;-85
2022/01/07 14:50:52;;;;;;;5.30;3.40;;;;;;;;;;4994568;28;20183;-85
2022/01/07 14:53:18;;;;;;;5.73;4.30;;;;;;;;;;4994269;28;20267;-85
2022/01/07 14:55:44;;;;;;;4.80;3.83;;;;;;;;;;4994230;28;20207;-85
2022/01/07 14:58:11;;;;;;;5.23;4.10;;;;;;;;;;4994225;28;20187;-85
2022/01/07 15:00:38;;;;;;;5.43;4.30;;;;;;;;;;4993999;28;20270;-85
2022/01/07 15:03:04;;;;;;;5.70;4.50;;;;;;;;;;4993500;28;20195;-85
2022/01/07 15:05:30;;;;;;;6.30;4.80;;;;;;;;;;4993994;28;20230;-85
2022/01/07 15:07:56;;;;;;;5.70;4.83;;;;;;;;;;4994054;28;20175;-85
2022/01/07 15:10:23;;;;;;;7.27;4.83;;;;;;;;;;4994004;28;20322;-85
2022/01/07 15:12:48;;;;;;;5.80;4.60;;;;;;;;;;4994049;28;20391;-85
2022/01/07 15:18:00;;;;;;;7.23;4.97;;;;;;;;;;4995388;28;20190;-86
2022/01/07 15:20:26;;;;;;;6.13;4.57;;;;;;;;;;4994156;28;20188;-84
2022/01/07 15:22:52;;;;;;;8.60;5.50;;;;;;;;;;4994021;28;20257;-86
2022/01/07 15:25:18;;;;;;;9.27;5.20;;;;;;;;;;4993532;28;20211;-86
2022/01/07 15:27:45;;;;;;;6.23;5.17;;;;;;;;;;4993849;28;20180;-85
2022/01/07 15:30:12;;;;;;;5.63;4.70;;;;;;;;;;4993837;28;20187;-85
2022/01/07 15:32:39;;;;;;;5.10;4.43;;;;;;;;;;4993605;28;20642;-85
2022/01/07 15:35:09;;;;;;;7.50;4.67;;;;;;;;;;4993237;28;20588;-86
2022/01/07 15:37:42;;;;;;;7.53;4.90;;;;;;;;;;4993719;28;20542;-86
2022/01/07 15:40:09;;;;;;;6.10;4.30;;;;;;;;;;4994276;28;20175;-85
2022/01/07 15:42:35;;;;;;;4.70;4.20;;;;;;;;;;4993661;28;20604;-85
2022/01/07 15:45:01;;;;;;;4.90;4.33;;;;;;;;;;4993305;28;20199;-86
2022/01/07 15:47:28;;;;;;;6.00;4.67;;;;;;;;;;4993268;28;20302;-85
2022/01/07 15:49:54;;;;;;;8.93;5.70;;;;;;;;;;4993217;28;20194;-85
2022/01/07 15:52:24;;;;;;;5.97;4.60;;;;;;;;;;4993715;28;20184;-85
2022/01/07 15:54:55;;;;;;;4.73;4.23;;;;;;;;;;4993184;28;20199;-85
2022/01/07 15:57:21;;;;;;;7.07;4.73;;;;;;;;;;4993340;28;20183;-85
2022/01/07 15:59:48;;;;;;;5.50;4.50;;;;;;;;;;4993106;28;20195;-85
2022/01/07 16:02:14;;;;;;;5.77;4.83;;;;;;;;;;4992941;28;20184;-86
2022/01/07 16:04:40;;;;;;;8.73;7.40;;;;;;;;;;4992994;28;20589;-85
2022/01/07 16:07:06;;;;;;;6.60;4.50;;;;;;;;;;4993088;28;20673;-86
2022/01/07 16:09:32;;;;;;;6.57;4.93;;;;;;;;;;4993152;28;20183;-81